Time;durP1;ratioP1;P1;durP2;ratioP2;P2;SDS_P1;SDS_P2;PMS_P1;PMS_P2;Temp;Humidity;BMP_temperature;BMP_pressure;BME280_temperature;BME280_humidity;BME280_pressure;Samples;Min_cycle;Max_cycle;Signal;HPM_P1;HPM_P2
2022/05/15 00:02:21;;;;;;;8.88;6.13;;;;;;;11.88;53.73;98765.47;4991265;28;20057;-73
2022/05/15 00:04:46;;;;;;;9.50;6.28;;;;;;;11.85;53.56;98771.56;4991524;28;20492;-74
2022/05/15 00:07:12;;;;;;;11.60;6.28;;;;;;;11.82;54.16;98764.75;4990978;28;20034;-72
2022/05/15 00:09:40;;;;;;;9.60;6.03;;;;;;;11.79;53.73;98764.53;4991611;28;20364;-73
2022/05/15 00:12:06;;;;;;;11.40;6.03;;;;;;;11.73;54.57;98763.78;4990771;28;20022;-73
2022/05/15 00:14:33;;;;;;;8.95;6.57;;;;;;;11.70;54.19;98767.94;4991384;28;20038;-73
2022/05/15 00:16:59;;;;;;;10.45;6.40;;;;;;;11.66;54.08;98772.41;4991072;28;20072;-72
2022/05/15 00:19:25;;;;;;;8.65;6.07;;;;;;;11.64;54.45;98769.13;4991221;28;20030;-73
2022/05/15 00:21:50;;;;;;;9.10;5.75;;;;;;;11.62;54.81;98771.34;4990670;28;20105;-73
2022/05/15 00:24:16;;;;;;;8.57;6.25;;;;;;;11.59;54.40;98770.03;4991470;28;20109;-72
2022/05/15 00:26:41;;;;;;;8.45;6.07;;;;;;;11.55;54.08;98774.47;4990665;28;20027;-73
2022/05/15 00:29:07;;;;;;;9.60;6.22;;;;;;;11.50;54.33;98777.28;4991250;28;20046;-72
2022/05/15 00:31:32;;;;;;;9.98;6.28;;;;;;;11.44;55.41;98767.47;4991042;28;20073;-73
2022/05/15 00:33:59;;;;;;;11.90;6.25;;;;;;;11.40;55.19;98769.16;4991304;28;20049;-73
2022/05/15 00:36:25;;;;;;;10.48;6.55;;;;;;;11.37;54.39;98770.56;4989883;28;20624;-73
2022/05/15 00:38:50;;;;;;;9.63;6.28;;;;;;;11.35;54.67;98770.06;4990735;28;20030;-72
2022/05/15 00:41:16;;;;;;;9.95;6.20;;;;;;;11.34;55.22;98776.66;4990398;28;20109;-73
2022/05/15 00:43:44;;;;;;;9.93;6.72;;;;;;;11.32;55.56;98765.16;4991431;28;20018;-73
2022/05/15 00:46:18;;;;;;;12.88;6.50;;;;;;;11.30;54.94;98768.16;4989322;28;20030;-73
2022/05/15 00:48:44;;;;;;;10.00;6.20;;;;;;;11.30;55.46;98770.13;4990388;28;20146;-73
2022/05/15 00:51:16;;;;;;;13.30;6.53;;;;;;;11.27;55.13;98763.25;4990535;28;20057;-73
2022/05/15 00:53:44;;;;;;;11.15;6.60;;;;;;;11.23;55.17;98778.69;4989911;28;20022;-72
2022/05/15 00:56:12;;;;;;;10.68;6.50;;;;;;;11.20;55.65;98773.81;4990149;28;20041;-73
2022/05/15 00:58:42;;;;;;;12.77;6.15;;;;;;;11.16;55.48;98770.81;4990710;28;20056;-73
2022/05/15 01:01:08;;;;;;;9.27;5.90;;;;;;;11.15;55.59;98768.38;4990006;28;20034;-73
2022/05/15 01:03:33;;;;;;;8.02;5.30;;;;;;;11.13;56.33;98765.91;4991068;28;20284;-73
2022/05/15 01:05:59;;;;;;;8.32;5.82;;;;;;;11.15;55.77;98768.38;4990026;28;20022;-72
2022/05/15 01:08:27;;;;;;;10.50;5.68;;;;;;;11.12;55.32;98763.47;4990518;28;20037;-73
2022/05/15 01:11:04;;;;;;;9.65;5.85;;;;;;;11.13;55.83;98765.91;4990442;28;20545;-73
2022/05/15 01:13:33;;;;;;;10.27;5.80;;;;;;;11.13;56.42;98765.09;4990984;28;20030;-74
2022/05/15 01:15:59;;;;;;;10.48;6.03;;;;;;;11.12;55.44;98761.53;4989611;28;20026;-73
2022/05/15 01:18:29;;;;;;;13.48;6.10;;;;;;;11.13;55.60;98765.09;4988583;28;20026;-73
2022/05/15 01:20:59;;;;;;;7.18;5.53;;;;;;;11.12;55.93;98769.75;4990004;28;20046;-73
2022/05/15 01:23:25;;;;;;;9.43;5.55;;;;;;;11.12;55.74;98764.28;4990645;28;20049;-73
2022/05/15 01:25:53;;;;;;;7.78;5.03;;;;;;;11.15;56.69;98771.13;4989768;28;20030;-72
2022/05/15 01:28:21;;;;;;;5.70;4.90;;;;;;;11.14;55.16;98766.75;4989740;28;20050;-72
2022/05/15 01:30:50;;;;;;;9.02;5.50;;;;;;;11.14;56.58;98762.06;4990090;28;20022;-73
2022/05/15 01:33:16;;;;;;;11.10;5.53;;;;;;;11.13;55.80;98765.09;4987818;28;20026;-74
2022/05/15 01:35:42;;;;;;;7.93;5.65;;;;;;;11.13;56.03;98765.91;4990067;28;20351;-73
2022/05/15 01:38:08;;;;;;;10.82;5.50;;;;;;;11.12;56.34;98766.22;4988971;28;20375;-73
2022/05/15 01:40:35;;;;;;;10.35;5.47;;;;;;;11.12;55.75;98768.94;4989645;28;20505;-73
2022/05/15 01:43:02;;;;;;;8.88;5.60;;;;;;;11.07;56.26;98769.00;4989063;28;20033;-73
2022/05/15 01:45:28;;;;;;;8.05;5.32;;;;;;;11.05;56.26;98768.47;4988651;28;20482;-72
2022/05/15 01:47:53;;;;;;;11.30;5.38;;;;;;;11.01;56.21;98770.97;4988361;28;20033;-73
2022/05/15 01:50:19;;;;;;;9.00;5.95;;;;;;;10.98;56.27;98772.38;4989974;28;20640;-73
2022/05/15 01:52:45;;;;;;;9.88;5.93;;;;;;;10.97;56.17;98770.75;4990192;28;20033;-73
2022/05/15 01:55:12;;;;;;;8.25;5.35;;;;;;;10.97;55.79;98768.00;4990089;28;20034;-73
2022/05/15 01:57:37;;;;;;;7.10;4.80;;;;;;;10.96;56.24;98773.81;4989565;28;20026;-73
2022/05/15 02:00:06;;;;;;;8.30;4.95;;;;;;;10.95;55.70;98770.22;4990045;28;20031;-72
2022/05/15 02:02:32;;;;;;;6.63;4.57;;;;;;;11.00;56.60;98775.66;4989478;28;20023;-73
2022/05/15 02:04:58;;;;;;;8.40;4.90;;;;;;;11.02;55.93;98770.69;4990377;28;20097;-72
2022/05/15 02:07:24;;;;;;;11.30;4.63;;;;;;;11.04;56.71;98772.34;4989217;28;20494;-73
2022/05/15 02:09:49;;;;;;;12.68;5.25;;;;;;;11.06;56.22;98772.88;4990385;28;20039;-73
2022/05/15 02:12:14;;;;;;;9.13;5.18;;;;;;;11.08;55.73;98770.66;4989583;28;20026;-73
2022/05/15 02:14:40;;;;;;;10.98;4.72;;;;;;;11.12;55.99;98780.75;4990009;28;20057;-72
2022/05/15 02:17:06;;;;;;;9.25;5.10;;;;;;;11.16;56.89;98772.75;4989276;28;20026;-73
2022/05/15 02:19:32;;;;;;;7.60;4.78;;;;;;;11.19;56.48;98766.69;4988369;28;20034;-73
2022/05/15 02:21:58;;;;;;;10.82;5.20;;;;;;;11.24;56.43;98763.84;4990091;28;20065;-73
2022/05/15 02:24:23;;;;;;;8.68;4.88;;;;;;;11.27;56.00;98767.94;4990261;28;20034;-73
2022/05/15 02:26:49;;;;;;;9.93;5.28;;;;;;;11.32;56.78;98770.63;4989410;28;20499;-73
2022/05/15 02:29:14;;;;;;;7.93;5.05;;;;;;;11.35;56.25;98778.28;4989615;28;20051;-73
2022/05/15 02:31:40;;;;;;;11.13;5.70;;;;;;;11.41;56.43;98776.28;4989841;28;20091;-74
2022/05/15 02:34:06;;;;;;;8.50;5.68;;;;;;;11.44;56.10;98775.69;4992738;28;20112;-74
2022/05/15 02:36:32;;;;;;;10.95;6.03;;;;;;;11.47;55.92;98780.59;4992139;28;20467;-75
2022/05/15 02:38:57;;;;;;;8.15;5.80;;;;;;;11.53;56.79;98773.94;4993697;28;20039;-74
2022/05/15 02:41:22;;;;;;;8.82;5.75;;;;;;;11.60;56.29;98779.06;4994147;28;20037;-76
2022/05/15 02:43:48;;;;;;;12.18;7.00;;;;;;;11.66;56.77;98779.81;4993331;28;20031;-76
2022/05/15 02:46:14;;;;;;;13.77;9.77;;;;;;;11.72;56.73;98779.47;4992620;28;20038;-76
2022/05/15 02:51:24;;;;;;;26.58;18.10;;;;;;;11.89;57.05;98780.84;4994235;28;20162;-76
2022/05/15 02:53:51;;;;;;;22.92;14.65;;;;;;;11.96;57.40;98786.00;4994517;28;20053;-77
2022/05/15 02:56:23;;;;;;;16.92;11.90;;;;;;;12.04;57.50;98783.44;4993919;28;20029;-77
2022/05/15 02:58:49;;;;;;;14.60;9.57;;;;;;;12.11;57.03;98784.97;4993823;28;20023;-75
2022/05/15 03:01:15;;;;;;;15.38;9.30;;;;;;;12.15;57.67;98786.03;4992310;28;20042;-75
2022/05/15 03:03:41;;;;;;;14.40;9.57;;;;;;;12.18;57.41;98788.97;4994142;28;20034;-75
2022/05/15 03:06:08;;;;;;;13.73;9.55;;;;;;;12.23;57.30;98790.81;4992957;28;20030;-74
2022/05/15 03:08:36;;;;;;;13.45;9.55;;;;;;;12.26;57.32;98790.22;4992589;28;20030;-74
2022/05/15 03:11:01;;;;;;;16.90;9.68;;;;;;;12.27;57.78;98800.09;4992550;28;20030;-74
2022/05/15 03:13:26;;;;;;;14.25;9.90;;;;;;;12.27;57.50;98793.81;4992322;28;20022;-74
2022/05/15 03:15:52;;;;;;;15.75;9.95;;;;;;;12.30;57.13;98802.25;4992096;28;20026;-74
2022/05/15 03:18:18;;;;;;;15.55;9.45;;;;;;;12.31;58.03;98803.91;4990892;28;20100;-76
2022/05/15 03:20:44;;;;;;;16.83;9.50;;;;;;;12.31;57.40;98803.09;4991084;28;20034;-77
2022/05/15 03:23:09;;;;;;;17.55;10.10;;;;;;;12.34;57.30;98808.81;4989342;28;20521;-75
2022/05/15 03:25:35;;;;;;;15.02;9.18;;;;;;;12.34;57.99;98802.50;4988763;28;20035;-75
2022/05/15 03:28:00;;;;;;;12.32;9.45;;;;;;;12.35;57.43;98809.63;4990880;28;20049;-75
2022/05/15 03:30:26;;;;;;;12.75;8.93;;;;;;;12.32;58.34;98808.28;4991073;28;20183;-75
2022/05/15 03:32:51;;;;;;;15.90;9.68;;;;;;;12.31;57.47;98812.16;4990408;28;20076;-76
2022/05/15 03:35:17;;;;;;;13.63;9.43;;;;;;;12.36;57.87;98814.81;4989190;28;20027;-75
2022/05/15 03:37:43;;;;;;;11.75;9.15;;;;;;;12.43;58.04;98817.19;4988408;28;20019;-75
2022/05/15 03:40:15;;;;;;;12.90;9.10;;;;;;;12.48;57.65;98822.59;4989578;28;20026;-75
2022/05/15 03:42:41;;;;;;;12.82;9.43;;;;;;;12.50;57.32;98819.56;4988839;28;20145;-75
2022/05/15 03:45:07;;;;;;;13.50;8.57;;;;;;;12.53;57.69;98820.88;4990007;28;20498;-75
2022/05/15 03:47:35;;;;;;;13.27;8.95;;;;;;;12.54;57.53;98823.34;4990811;28;20467;-76
2022/05/15 03:50:02;;;;;;;12.98;8.65;;;;;;;12.58;57.70;98821.66;4991561;28;20057;-75
2022/05/15 03:52:27;;;;;;;14.45;8.73;;;;;;;12.63;57.83;98823.47;4991248;28;20105;-76
2022/05/15 03:54:52;;;;;;;12.95;8.70;;;;;;;12.68;58.14;98823.41;4991367;28;20045;-75
2022/05/15 03:57:19;;;;;;;13.80;9.30;;;;;;;12.70;57.21;98826.66;4991128;28;20403;-75
2022/05/15 03:59:44;;;;;;;17.55;10.05;;;;;;;12.73;57.40;98826.06;4991173;28;20030;-75
2022/05/15 04:02:10;;;;;;;16.45;10.18;;;;;;;12.76;57.45;98822.72;4991035;28;20081;-76
2022/05/15 04:04:37;;;;;;;15.23;10.02;;;;;;;12.80;57.61;98826.50;4991429;28;20454;-75
2022/05/15 04:07:02;;;;;;;18.80;10.30;;;;;;;12.83;57.41;98824.25;4990922;28;20093;-75
2022/05/15 04:09:30;;;;;;;18.10;10.70;;;;;;;12.82;57.24;98828.94;4990807;28;20423;-75
2022/05/15 04:11:55;;;;;;;20.70;11.68;;;;;;;12.87;57.24;98833.53;4991156;28;20030;-76
2022/05/15 04:14:21;;;;;;;21.33;11.55;;;;;;;12.89;57.14;98834.88;4991012;28;20029;-74
2022/05/15 04:16:47;;;;;;;20.45;12.48;;;;;;;12.90;57.42;98841.19;4989146;28;20018;-73
2022/05/15 04:19:12;;;;;;;21.65;11.82;;;;;;;12.90;57.31;98843.94;4990395;28;20022;-73
2022/05/15 04:21:40;;;;;;;18.77;11.55;;;;;;;12.90;57.47;98846.69;4990724;28;20030;-75
2022/05/15 04:24:08;;;;;;;23.65;12.65;;;;;;;12.89;57.61;98842.28;4989194;28;20072;-73
2022/05/15 04:26:35;;;;;;;25.27;12.52;;;;;;;12.88;57.51;98838.75;4990166;28;20030;-74
2022/05/15 04:29:00;;;;;;;20.88;12.10;;;;;;;12.88;57.77;98843.41;4989153;28;20046;-74
2022/05/15 04:31:27;;;;;;;22.02;12.60;;;;;;;12.83;57.29;98840.78;4986808;28;20514;-74
2022/05/15 04:33:52;;;;;;;21.90;11.57;;;;;;;12.76;57.14;98846.66;4990530;28;20038;-74
2022/05/15 04:36:18;;;;;;;18.23;10.93;;;;;;;12.75;57.70;98845.00;4989274;28;20379;-74
2022/05/15 04:38:43;;;;;;;17.02;10.68;;;;;;;12.75;57.91;98854.09;4990744;28;20518;-74
2022/05/15 04:41:09;;;;;;;15.13;10.32;;;;;;;12.77;58.12;98854.63;4990138;28;20038;-74
2022/05/15 04:43:34;;;;;;;17.17;10.00;;;;;;;12.78;57.76;98864.50;4991023;28;20031;-74
2022/05/15 04:46:03;;;;;;;15.48;10.02;;;;;;;12.79;57.53;98860.66;4990139;28;20114;-74
2022/05/15 04:48:29;;;;;;;14.80;10.07;;;;;;;12.81;58.21;98860.34;4990132;28;20026;-74
2022/05/15 04:50:54;;;;;;;15.25;9.45;;;;;;;12.84;58.44;98868.00;4989833;28;20072;-73
2022/05/15 04:53:19;;;;;;;13.20;8.82;;;;;;;12.88;58.27;98865.44;4991210;28;20101;-74
2022/05/15 04:55:45;;;;;;;18.73;9.45;;;;;;;12.92;58.18;98869.22;4990299;28;20045;-73
2022/05/15 04:58:10;;;;;;;13.13;9.10;;;;;;;12.95;58.14;98865.88;4990197;28;20029;-74
2022/05/15 05:00:36;;;;;;;14.25;8.95;;;;;;;12.97;58.06;98874.66;4990010;28;20414;-74
2022/05/15 05:03:01;;;;;;;13.85;8.70;;;;;;;12.96;58.05;98881.28;4989097;28;20065;-74
2022/05/15 05:05:27;;;;;;;14.50;8.50;;;;;;;12.98;57.74;98870.78;4990172;28;20040;-74
2022/05/15 05:07:52;;;;;;;13.27;9.10;;;;;;;13.03;57.85;98878.94;4990345;28;20030;-74
2022/05/15 05:10:18;;;;;;;12.85;8.30;;;;;;;13.11;57.71;98880.19;4989742;28;20145;-74
2022/05/15 05:12:43;;;;;;;13.30;8.75;;;;;;;13.20;58.04;98883.06;4990327;28;20026;-76
2022/05/15 05:15:12;;;;;;;15.38;8.90;;;;;;;13.29;58.23;98891.44;4989648;28;20110;-76
2022/05/15 05:17:38;;;;;;;14.48;8.32;;;;;;;13.36;58.11;98878.09;4990143;28;20485;-75
2022/05/15 05:20:04;;;;;;;12.40;8.35;;;;;;;13.48;58.07;98885.88;4990345;28;20033;-76
2022/05/15 05:22:30;;;;;;;12.52;8.45;;;;;;;13.58;57.96;98885.69;4987372;28;20018;-76
2022/05/15 05:24:55;;;;;;;12.80;7.75;;;;;;;13.69;57.65;98889.84;4990411;28;20022;-76
2022/05/15 05:27:23;;;;;;;14.07;7.88;;;;;;;13.82;57.60;98896.50;4989716;28;20037;-75
2022/05/15 05:29:49;;;;;;;12.18;7.75;;;;;;;13.91;57.36;98891.09;4990581;28;20430;-76
2022/05/15 05:32:15;;;;;;;18.40;10.07;;;;;;;13.98;57.12;98897.00;4990927;28;20027;-76
2022/05/15 05:34:40;;;;;;;12.65;7.40;;;;;;;14.09;56.94;98899.53;4990963;28;20096;-76
2022/05/15 05:37:05;;;;;;;13.13;7.25;;;;;;;14.13;56.51;98904.13;4990919;28;20489;-75
2022/05/15 05:39:31;;;;;;;15.95;7.80;;;;;;;14.15;55.95;98906.56;4991114;28;20030;-76
2022/05/15 05:41:57;;;;;;;11.75;6.93;;;;;;;14.18;56.31;98899.63;4990817;28;20038;-76
2022/05/15 05:44:24;;;;;;;12.23;7.03;;;;;;;14.20;56.20;98900.16;4991318;28;20513;-76
2022/05/15 05:46:49;;;;;;;12.52;7.22;;;;;;;14.20;56.00;98900.94;4990515;28;20056;-76
2022/05/15 05:49:15;;;;;;;13.50;7.40;;;;;;;14.19;56.09;98906.78;4990946;28;20526;-75
2022/05/15 05:51:40;;;;;;;10.95;7.90;;;;;;;14.17;55.76;98911.78;4990317;28;20034;-76
2022/05/15 05:54:05;;;;;;;11.60;6.88;;;;;;;14.17;55.71;98911.78;4991162;28;20105;-75
2022/05/15 05:56:31;;;;;;;10.23;7.13;;;;;;;14.15;55.71;98912.09;4990712;28;20122;-76
2022/05/15 05:58:56;;;;;;;13.70;7.53;;;;;;;14.17;55.60;98915.34;4990671;28;20030;-76
2022/05/15 06:01:22;;;;;;;11.60;7.75;;;;;;;14.19;55.59;98918.63;4990886;28;20041;-76
2022/05/15 06:06:35;;;;;;;14.00;8.63;;;;;;;14.31;55.56;98909.81;4989026;28;20513;-76
2022/05/15 06:09:01;;;;;;;13.65;8.30;;;;;;;14.35;55.61;98929.34;4992866;28;20018;-75
2022/05/15 06:11:26;;;;;;;14.18;8.13;;;;;;;14.39;55.57;98922.06;4994894;28;20084;-75
2022/05/15 06:13:52;;;;;;;15.60;8.18;;;;;;;14.44;55.70;98922.75;4994830;28;20022;-76
2022/05/15 06:16:18;;;;;;;13.32;8.38;;;;;;;14.49;55.49;98934.81;4994419;28;20105;-75
2022/05/15 06:18:44;;;;;;;14.75;7.85;;;;;;;14.52;55.64;98939.72;4993949;28;20105;-75
2022/05/15 06:21:10;;;;;;;13.05;8.05;;;;;;;14.62;55.80;98931.22;4993856;28;20161;-75
2022/05/15 06:23:35;;;;;;;13.93;7.97;;;;;;;14.73;55.64;98938.13;4994832;28;20030;-75
2022/05/15 06:26:01;;;;;;;10.57;6.38;;;;;;;14.86;55.69;98942.00;4992596;28;20439;-76
2022/05/15 06:28:29;;;;;;;10.07;7.20;;;;;;;14.98;55.60;98937.84;4992666;28;20042;-77
2022/05/15 06:30:54;;;;;;;11.98;6.40;;;;;;;15.06;55.31;98931.56;4993620;28;20085;-76
2022/05/15 06:33:20;;;;;;;10.30;5.72;;;;;;;15.11;54.75;98936.97;4992652;28;20054;-75
2022/05/15 06:35:45;;;;;;;12.82;6.18;;;;;;;15.13;54.80;98936.63;4993891;28;21333;-75
2022/05/15 06:38:11;;;;;;;11.98;5.63;;;;;;;15.12;54.37;98932.25;4992579;28;20022;-75
2022/05/15 06:40:36;;;;;;;9.25;5.13;;;;;;;15.11;54.32;98936.97;4993713;28;20034;-75
2022/05/15 06:43:02;;;;;;;13.48;6.25;;;;;;;15.13;54.06;98931.09;4992924;28;20022;-75
2022/05/15 06:45:28;;;;;;;11.35;5.47;;;;;;;15.14;53.90;98943.78;4992477;28;20022;-76
2022/05/15 06:47:53;;;;;;;11.73;5.93;;;;;;;15.15;54.11;98948.19;4993864;28;20502;-76
2022/05/15 06:50:19;;;;;;;9.88;5.60;;;;;;;15.20;53.98;98942.53;4993982;28;20121;-76
2022/05/15 06:52:44;;;;;;;10.05;5.00;;;;;;;15.22;54.26;98945.81;4992076;28;20030;-75
2022/05/15 06:55:15;;;;;;;8.65;5.22;;;;;;;15.28;54.08;98941.78;4976484;28;20144;-76
2022/05/15 06:57:43;;;;;;;12.15;6.50;;;;;;;15.37;54.25;98938.25;4991996;28;20030;-75
2022/05/15 07:00:11;;;;;;;12.40;6.13;;;;;;;15.43;53.85;98942.53;4993832;28;20030;-76
2022/05/15 07:02:40;;;;;;;12.65;5.97;;;;;;;15.48;53.59;98942.41;4991930;28;20084;-75
2022/05/15 07:05:06;;;;;;;14.53;5.27;;;;;;;15.54;53.60;98943.06;4990745;28;20162;-76
2022/05/15 07:07:32;;;;;;;11.60;5.20;;;;;;;15.60;53.79;98948.13;4993199;28;20281;-76
2022/05/15 07:09:57;;;;;;;11.65;5.47;;;;;;;15.65;53.76;98947.19;4992663;28;20406;-75
2022/05/15 07:12:26;;;;;;;8.93;4.25;;;;;;;15.71;53.64;98948.66;4993342;28;20030;-76
2022/05/15 07:14:51;;;;;;;10.52;6.10;;;;;;;15.75;53.39;98946.09;4993682;28;20096;-76
2022/05/15 07:17:16;;;;;;;9.32;4.50;;;;;;;15.79;53.48;98949.84;4992882;28;20026;-76
2022/05/15 07:19:42;;;;;;;9.80;4.22;;;;;;;15.85;52.97;98939.44;4992995;28;20037;-76
2022/05/15 07:22:10;;;;;;;9.10;4.50;;;;;;;15.91;52.97;98940.97;4993297;28;20387;-77
2022/05/15 07:24:38;;;;;;;9.38;3.60;;;;;;;15.95;53.10;98947.50;4992446;28;20026;-76
2022/05/15 07:27:08;;;;;;;6.47;3.50;;;;;;;16.02;52.41;98941.50;4993027;28;20037;-76
2022/05/15 07:29:36;;;;;;;6.80;3.55;;;;;;;16.07;52.68;98936.63;4993184;28;20193;-76
2022/05/15 07:32:03;;;;;;;10.13;3.50;;;;;;;16.16;52.46;98944.13;4992737;28;20438;-76
2022/05/15 07:34:29;;;;;;;6.53;3.58;;;;;;;16.24;51.87;98948.88;4992980;28;20387;-75
2022/05/15 07:36:54;;;;;;;7.22;3.45;;;;;;;16.32;52.10;98953.63;4992608;28;20034;-75
2022/05/15 07:39:21;;;;;;;6.05;3.03;;;;;;;16.42;52.16;98955.25;4992908;28;20569;-76
2022/05/15 07:41:48;;;;;;;7.45;2.75;;;;;;;16.48;50.97;98947.63;4992814;28;20042;-76
2022/05/15 07:44:13;;;;;;;7.53;2.72;;;;;;;16.51;50.76;98956.09;4990305;28;20065;-76
2022/05/15 07:46:40;;;;;;;6.13;2.72;;;;;;;16.54;50.40;98951.84;4992592;28;20789;-76
2022/05/15 07:49:06;;;;;;;11.63;2.83;;;;;;;16.61;50.51;98949.41;4992682;28;20046;-76
2022/05/15 07:51:32;;;;;;;7.90;2.78;;;;;;;16.68;50.41;98951.72;4992451;28;20034;-76
2022/05/15 07:53:59;;;;;;;5.75;2.88;;;;;;;16.78;50.42;98950.56;4992655;28;20049;-75
2022/05/15 07:56:24;;;;;;;9.10;3.33;;;;;;;16.95;49.99;98950.56;4992364;28;20089;-76
2022/05/15 07:58:49;;;;;;;10.32;3.40;;;;;;;17.11;50.21;98953.69;4992544;28;20034;-77
2022/05/15 08:01:15;;;;;;;8.55;3.47;;;;;;;17.23;50.14;98955.78;4992365;28;20062;-76
2022/05/15 08:03:43;;;;;;;7.57;4.00;;;;;;;17.36;49.84;98953.13;4992366;28;20031;-77
2022/05/15 08:08:59;;;;;;;8.30;3.30;;;;;;;17.64;49.50;98952.75;4991270;28;20537;-76
2022/05/15 08:11:28;;;;;;;7.95;3.10;;;;;;;17.66;49.00;98942.13;4992468;28;20026;-77
2022/05/15 08:14:00;;;;;;;7.18;2.90;;;;;;;17.77;48.79;98948.94;4992415;28;20041;-77
2022/05/15 08:16:27;;;;;;;7.68;2.75;;;;;;;17.83;48.59;98952.34;4991802;28;20475;-77
2022/05/15 08:24:20;;;;;;;7.35;3.65;;;;;;;18.09;47.80;98957.81;4992158;28;20042;-78
2022/05/15 08:26:46;;;;;;;7.85;2.80;;;;;;;18.22;46.92;98960.66;4991402;28;20026;-77
2022/05/15 08:29:12;;;;;;;7.78;2.97;;;;;;;18.36;47.32;98965.97;4992329;28;20180;-77
2022/05/15 08:31:39;;;;;;;6.60;3.10;;;;;;;18.47;47.31;98960.88;4991188;28;20027;-78
2022/05/15 08:34:05;;;;;;;7.35;2.90;;;;;;;18.52;46.44;98963.44;4991916;28;20072;-78
2022/05/15 08:36:32;;;;;;;7.93;2.70;;;;;;;18.51;46.49;98957.06;4990438;28;20463;-77
2022/05/15 08:38:57;;;;;;;7.95;3.67;;;;;;;18.63;46.11;98956.31;4991914;28;20038;-78
2022/05/15 08:41:33;;;;;;;9.15;3.38;;;;;;;18.77;46.25;98958.03;4991217;28;20088;-76
2022/05/15 08:44:18;;;;;;;8.10;3.20;;;;;;;18.85;45.99;98954.38;4991467;28;20054;-77
2022/05/15 08:47:09;;;;;;;10.65;2.63;;;;;;;18.93;45.60;98958.22;4991356;28;20386;-77
2022/05/15 08:49:37;;;;;;;8.45;2.65;;;;;;;18.88;45.27;98951.72;4990662;28;20089;-78
2022/05/15 08:52:30;;;;;;;6.10;2.45;;;;;;;18.93;45.29;98955.44;4991359;28;20030;-78
2022/05/15 08:55:07;;;;;;;8.45;2.92;;;;;;;18.89;45.29;98958.91;4991581;28;20072;-77
2022/05/15 08:57:52;;;;;;;8.40;2.90;;;;;;;18.82;45.19;98941.16;4991052;28;20041;-77
2022/05/15 09:00:25;;;;;;;8.43;3.08;;;;;;;18.77;45.07;98946.91;4991633;28;20070;-78
2022/05/15 09:02:50;;;;;;;5.97;2.50;;;;;;;18.80;44.98;98951.78;4991483;28;20746;-76
2022/05/15 09:05:17;;;;;;;8.10;2.85;;;;;;;18.85;44.83;98946.84;4991564;28;20038;-77
2022/05/15 09:07:42;;;;;;;8.07;3.28;;;;;;;18.95;44.88;98947.56;4991359;28;20093;-77
2022/05/15 09:10:18;;;;;;;12.10;3.65;;;;;;;18.92;44.82;98953.81;4991925;28;20041;-77
2022/05/15 09:12:50;;;;;;;7.95;3.13;;;;;;;18.90;44.78;98948.59;4990663;28;20034;-77
2022/05/15 09:15:22;;;;;;;8.30;2.92;;;;;;;18.92;44.60;98949.09;4988443;28;20507;-77
2022/05/15 09:17:47;;;;;;;6.82;2.90;;;;;;;18.93;45.23;98955.44;4988865;28;20030;-77
2022/05/15 09:20:45;;;;;;;6.15;2.90;;;;;;;18.98;44.91;98952.50;4990209;28;20034;-76
2022/05/15 09:23:24;;;;;;;6.50;2.88;;;;;;;19.13;44.56;98965.78;4990653;28;20038;-77
2022/05/15 09:25:56;;;;;;;6.30;2.40;;;;;;;19.18;44.39;98950.84;4988671;28;20022;-77
2022/05/15 09:28:26;;;;;;;6.25;2.63;;;;;;;19.18;44.07;98957.19;4991149;28;20054;-77
2022/05/15 09:30:54;;;;;;;6.38;2.55;;;;;;;19.10;43.65;98960.06;4991136;28;20030;-78
2022/05/15 09:33:54;;;;;;;7.88;2.75;;;;;;;19.00;43.57;98956.53;4990056;28;20164;-78
2022/05/15 09:36:34;;;;;;;8.63;2.65;;;;;;;19.01;43.70;98960.16;4987633;28;20042;-79
2022/05/15 09:39:25;;;;;;;9.00;3.00;;;;;;;19.06;44.01;98959.94;4989770;28;20026;-78
2022/05/15 09:44:59;;;;;;;9.70;3.20;;;;;;;19.03;43.11;98966.19;4994675;28;20118;-78
2022/05/15 09:47:32;;;;;;;6.38;3.08;;;;;;;18.88;42.71;98967.59;4994885;28;20595;-78
2022/05/15 09:49:59;;;;;;;7.65;3.30;;;;;;;18.79;42.73;98969.63;4995352;28;20445;-76
2022/05/15 09:52:32;;;;;;;6.60;3.10;;;;;;;18.92;43.37;98956.59;4995017;28;20088;-76
2022/05/15 09:55:13;;;;;;;8.40;3.10;;;;;;;19.06;43.23;98953.56;4993766;28;20057;-75
2022/05/15 09:57:55;;;;;;;7.30;2.97;;;;;;;19.10;42.91;98971.19;4994646;28;20041;-76
2022/05/15 10:00:23;;;;;;;6.07;3.00;;;;;;;19.12;42.18;98966.91;4995135;28;20490;-76
2022/05/15 10:02:54;;;;;;;7.05;3.10;;;;;;;19.22;42.16;98960.13;4994949;28;20490;-75
2022/05/15 10:05:23;;;;;;;8.32;2.63;;;;;;;19.37;42.22;98957.81;4995023;28;20150;-74
2022/05/15 10:07:58;;;;;;;7.82;3.17;;;;;;;19.45;42.20;98962.50;4994831;28;20541;-74
2022/05/15 10:10:29;;;;;;;6.10;4.22;;;;;;;19.38;42.15;98957.50;4995222;28;20031;-74
2022/05/15 10:13:27;;;;;;;7.53;2.97;;;;;;;19.24;41.82;98962.53;4993726;28;20410;-74
2022/05/15 10:15:55;;;;;;;7.25;2.92;;;;;;;19.13;41.16;98970.50;4994007;28;20088;-72
2022/05/15 10:18:27;;;;;;;6.78;2.80;;;;;;;19.01;41.82;98969.28;4994516;28;20030;-75
2022/05/15 10:20:53;;;;;;;8.32;2.60;;;;;;;18.99;41.60;98966.03;4994472;28;20042;-72
2022/05/15 10:23:25;;;;;;;8.63;2.63;;;;;;;19.01;41.91;98960.94;4993702;28;20116;-71
2022/05/15 10:26:03;;;;;;;7.55;2.50;;;;;;;19.14;42.16;98961.00;4994064;28;20050;-72
2022/05/15 10:28:32;;;;;;;9.00;2.50;;;;;;;19.27;41.92;98959.09;4994025;28;20077;-71
2022/05/15 10:31:01;;;;;;;13.02;4.30;;;;;;;19.38;41.67;98965.00;4992598;28;20089;-71
2022/05/15 10:33:27;;;;;;;5.72;2.20;;;;;;;19.34;40.92;98962.94;4993187;28;20070;-71
2022/05/15 10:36:01;;;;;;;6.53;2.20;;;;;;;19.22;40.55;98962.06;4993881;28;20031;-71
2022/05/15 10:38:32;;;;;;;5.90;2.58;;;;;;;19.13;40.45;98960.22;4994125;28;20501;-71
2022/05/15 10:41:08;;;;;;;5.90;2.05;;;;;;;19.18;40.87;98965.53;4992712;28;20034;-72
2022/05/15 10:43:53;;;;;;;6.53;2.20;;;;;;;19.39;41.15;98950.78;4994651;28;20375;-72
2022/05/15 10:46:28;;;;;;;7.00;2.55;;;;;;;19.69;40.80;98958.16;4993953;28;20031;-72
2022/05/15 10:49:24;;;;;;;7.82;2.65;;;;;;;19.87;40.17;98958.75;4993793;28;20032;-72
2022/05/15 10:52:06;;;;;;;6.82;2.35;;;;;;;19.87;40.08;98958.75;4993857;28;20030;-72
2022/05/15 10:57:42;;;;;;;7.70;2.30;;;;;;;19.76;39.58;98952.84;4994232;28;20125;-72
2022/05/15 11:00:44;;;;;;;7.43;2.00;;;;;;;19.86;39.67;98946.78;4993742;28;20030;-72
2022/05/15 11:03:30;;;;;;;5.93;2.28;;;;;;;20.08;40.01;98941.97;4994183;28;20026;-72
2022/05/15 11:05:59;;;;;;;8.23;2.30;;;;;;;20.21;39.33;98945.56;4994588;28;20495;-72
2022/05/15 11:08:36;;;;;;;6.97;2.03;;;;;;;20.25;39.49;98940.09;4993935;28;20028;-72
2022/05/15 11:11:31;;;;;;;9.35;2.85;;;;;;;20.19;39.24;98940.31;4993657;28;20110;-73
2022/05/15 11:14:02;;;;;;;6.18;2.58;;;;;;;20.02;38.96;98946.16;4991775;28;20030;-72
2022/05/15 11:16:53;;;;;;;5.07;1.95;;;;;;;19.93;39.50;98941.50;4991349;28;20026;-72
2022/05/15 11:19:34;;;;;;;6.18;2.15;;;;;;;20.01;39.02;98948.09;4993529;28;20097;-72
2022/05/15 11:22:26;;;;;;;7.75;2.30;;;;;;;20.19;39.03;98939.53;4993667;28;20485;-72
2022/05/15 11:25:06;;;;;;;6.78;2.30;;;;;;;20.43;39.02;98937.88;4989654;28;20062;-72
2022/05/15 11:27:49;;;;;;;8.27;3.22;;;;;;;20.62;38.78;98932.50;4993213;28;20094;-73
2022/05/15 11:30:30;;;;;;;6.30;2.55;;;;;;;20.79;38.61;98925.03;4993832;28;20074;-72
2022/05/15 11:32:55;;;;;;;5.20;2.45;;;;;;;20.83;38.02;98923.16;4994594;28;20026;-73
2022/05/15 11:35:21;;;;;;;6.82;2.50;;;;;;;20.78;38.12;98918.66;4993819;28;20034;-73
2022/05/15 11:37:55;;;;;;;6.40;2.70;;;;;;;20.74;38.07;98925.28;4993333;28;20045;-72
2022/05/15 11:40:44;;;;;;;6.53;2.03;;;;;;;20.70;37.88;98922.38;4991805;28;20030;-72
2022/05/15 11:43:30;;;;;;;5.70;1.60;;;;;;;20.73;38.09;98909.72;4992319;28;20034;-73
2022/05/15 11:46:10;;;;;;;5.30;2.03;;;;;;;20.84;37.83;98922.00;4992021;28;20529;-73
2022/05/15 11:48:38;;;;;;;4.50;1.90;;;;;;;20.97;38.17;98922.78;4993094;28;20034;-72
2022/05/15 11:51:12;;;;;;;6.80;2.20;;;;;;;21.06;37.74;98917.03;4993120;28;20138;-72
2022/05/15 11:53:54;;;;;;;6.55;2.20;;;;;;;21.06;37.60;98905.88;4993442;28;20034;-72
2022/05/15 11:56:27;;;;;;;6.55;2.22;;;;;;;21.06;37.49;98908.69;4993077;28;20034;-73
2022/05/15 11:59:30;;;;;;;5.88;2.60;;;;;;;21.10;37.45;98910.38;4990477;28;20031;-73